sensor_id;sensor_type;location;lat;lon;timestamp;P1;durP1;ratioP1;P2;durP2;ratioP2
69906;SDS011;57190;47.918;8.112;2022-12-18T00:01:16;5.90;;;5.27;;
69906;SDS011;57190;47.918;8.112;2022-12-18T00:03:46;5.57;;;5.03;;
69906;SDS011;57190;47.918;8.112;2022-12-18T00:06:13;5.67;;;4.80;;
69906;SDS011;57190;47.918;8.112;2022-12-18T00:08:40;5.93;;;5.17;;
69906;SDS011;57190;47.918;8.112;2022-12-18T00:11:10;7.33;;;5.33;;
69906;SDS011;57190;47.918;8.112;2022-12-18T00:13:38;6.07;;;5.23;;
69906;SDS011;57190;47.918;8.112;2022-12-18T00:16:04;4.97;;;4.40;;
69906;SDS011;57190;47.918;8.112;2022-12-18T00:18:31;5.80;;;4.70;;
69906;SDS011;57190;47.918;8.112;2022-12-18T00:20:58;4.97;;;4.37;;
69906;SDS011;57190;47.918;8.112;2022-12-18T00:23:25;4.80;;;4.30;;
69906;SDS011;57190;47.918;8.112;2022-12-18T00:25:51;5.30;;;4.80;;
69906;SDS011;57190;47.918;8.112;2022-12-18T00:28:16;5.23;;;4.73;;
69906;SDS011;57190;47.918;8.112;2022-12-18T00:30:42;6.00;;;4.80;;
69906;SDS011;57190;47.918;8.112;2022-12-18T00:33:07;5.17;;;4.67;;
69906;SDS011;57190;47.918;8.112;2022-12-18T00:35:33;5.60;;;4.87;;
69906;SDS011;57190;47.918;8.112;2022-12-18T00:37:58;5.57;;;4.93;;
69906;SDS011;57190;47.918;8.112;2022-12-18T00:40:24;5.50;;;5.00;;
69906;SDS011;57190;47.918;8.112;2022-12-18T00:42:49;6.10;;;4.97;;
69906;SDS011;57190;47.918;8.112;2022-12-18T00:45:21;5.90;;;5.13;;
69906;SDS011;57190;47.918;8.112;2022-12-18T00:47:47;5.60;;;5.10;;
69906;SDS011;57190;47.918;8.112;2022-12-18T00:50:12;5.43;;;4.93;;
69906;SDS011;57190;47.918;8.112;2022-12-18T00:52:38;5.67;;;5.07;;
69906;SDS011;57190;47.918;8.112;2022-12-18T00:55:05;6.50;;;5.80;;
69906;SDS011;57190;47.918;8.112;2022-12-18T00:57:31;5.57;;;4.63;;
69906;SDS011;57190;47.918;8.112;2022-12-18T00:59:56;5.87;;;5.37;;
69906;SDS011;57190;47.918;8.112;2022-12-18T01:02:22;5.53;;;5.00;;
69906;SDS011;57190;47.918;8.112;2022-12-18T01:04:48;6.87;;;5.50;;
69906;SDS011;57190;47.918;8.112;2022-12-18T01:07:14;6.60;;;5.80;;
69906;SDS011;57190;47.918;8.112;2022-12-18T01:09:39;5.97;;;5.37;;
69906;SDS011;57190;47.918;8.112;2022-12-18T01:12:05;7.70;;;5.77;;
69906;SDS011;57190;47.918;8.112;2022-12-18T01:14:31;6.10;;;5.50;;
69906;SDS011;57190;47.918;8.112;2022-12-18T01:16:56;6.33;;;5.73;;
69906;SDS011;57190;47.918;8.112;2022-12-18T01:19:22;6.03;;;5.43;;
69906;SDS011;57190;47.918;8.112;2022-12-18T01:21:48;6.83;;;5.77;;
69906;SDS011;57190;47.918;8.112;2022-12-18T01:24:14;6.60;;;5.30;;
69906;SDS011;57190;47.918;8.112;2022-12-18T01:26:40;6.57;;;5.87;;
69906;SDS011;57190;47.918;8.112;2022-12-18T01:29:05;6.40;;;5.80;;
69906;SDS011;57190;47.918;8.112;2022-12-18T01:31:31;6.20;;;5.60;;
69906;SDS011;57190;47.918;8.112;2022-12-18T01:34:00;6.90;;;6.03;;
69906;SDS011;57190;47.918;8.112;2022-12-18T01:36:27;7.93;;;5.87;;
69906;SDS011;57190;47.918;8.112;2022-12-18T01:38:55;7.33;;;6.50;;
69906;SDS011;57190;47.918;8.112;2022-12-18T01:41:23;7.03;;;6.33;;
69906;SDS011;57190;47.918;8.112;2022-12-18T01:43:52;7.50;;;5.93;;
69906;SDS011;57190;47.918;8.112;2022-12-18T01:46:21;9.20;;;7.23;;
69906;SDS011;57190;47.918;8.112;2022-12-18T01:48:48;6.47;;;5.63;;
69906;SDS011;57190;47.918;8.112;2022-12-18T01:51:18;6.80;;;5.80;;
69906;SDS011;57190;47.918;8.112;2022-12-18T01:53:44;7.30;;;6.70;;
69906;SDS011;57190;47.918;8.112;2022-12-18T01:56:12;8.03;;;6.00;;
69906;SDS011;57190;47.918;8.112;2022-12-18T02:01:06;8.33;;;6.27;;
69906;SDS011;57190;47.918;8.112;2022-12-18T02:03:32;8.07;;;6.10;;
69906;SDS011;57190;47.918;8.112;2022-12-18T02:06:02;6.90;;;6.13;;
69906;SDS011;57190;47.918;8.112;2022-12-18T02:11:32;6.83;;;6.13;;
69906;SDS011;57190;47.918;8.112;2022-12-18T02:25:12;8.20;;;6.60;;
69906;SDS011;57190;47.918;8.112;2022-12-18T02:27:57;9.13;;;7.50;;
69906;SDS011;57190;47.918;8.112;2022-12-18T02:30:27;7.20;;;6.10;;
69906;SDS011;57190;47.918;8.112;2022-12-18T02:32:57;9.63;;;7.50;;
69906;SDS011;57190;47.918;8.112;2022-12-18T02:35:27;8.67;;;7.23;;
69906;SDS011;57190;47.918;8.112;2022-12-18T02:37:55;8.20;;;7.03;;
69906;SDS011;57190;47.918;8.112;2022-12-18T02:40:23;10.40;;;7.00;;
69906;SDS011;57190;47.918;8.112;2022-12-18T02:42:51;10.10;;;7.17;;
69906;SDS011;57190;47.918;8.112;2022-12-18T02:45:16;8.43;;;7.20;;
69906;SDS011;57190;47.918;8.112;2022-12-18T02:47:43;9.70;;;7.90;;
69906;SDS011;57190;47.918;8.112;2022-12-18T02:50:34;10.47;;;7.53;;
69906;SDS011;57190;47.918;8.112;2022-12-18T02:55:41;11.57;;;8.77;;
69906;SDS011;57190;47.918;8.112;2022-12-18T03:09:32;8.40;;;7.10;;
69906;SDS011;57190;47.918;8.112;2022-12-18T03:12:03;9.87;;;7.53;;
69906;SDS011;57190;47.918;8.112;2022-12-18T03:17:46;8.50;;;6.67;;
69906;SDS011;57190;47.918;8.112;2022-12-18T03:20:17;8.20;;;7.23;;
69906;SDS011;57190;47.918;8.112;2022-12-18T03:22:47;10.83;;;7.10;;
69906;SDS011;57190;47.918;8.112;2022-12-18T03:25:16;10.00;;;7.60;;
69906;SDS011;57190;47.918;8.112;2022-12-18T03:27:46;7.90;;;6.97;;
69906;SDS011;57190;47.918;8.112;2022-12-18T03:30:14;8.27;;;6.67;;
69906;SDS011;57190;47.918;8.112;2022-12-18T03:32:52;9.13;;;7.80;;
69906;SDS011;57190;47.918;8.112;2022-12-18T03:35:25;10.40;;;7.30;;
69906;SDS011;57190;47.918;8.112;2022-12-18T03:37:55;8.90;;;7.60;;
69906;SDS011;57190;47.918;8.112;2022-12-18T03:40:22;7.57;;;6.77;;
69906;SDS011;57190;47.918;8.112;2022-12-18T03:43:02;9.77;;;7.80;;
69906;SDS011;57190;47.918;8.112;2022-12-18T03:45:34;7.73;;;6.93;;
69906;SDS011;57190;47.918;8.112;2022-12-18T03:50:47;8.83;;;7.30;;
69906;SDS011;57190;47.918;8.112;2022-12-18T03:53:26;10.63;;;7.60;;
69906;SDS011;57190;47.918;8.112;2022-12-18T03:55:59;8.93;;;7.40;;
69906;SDS011;57190;47.918;8.112;2022-12-18T03:58:27;11.37;;;9.17;;
69906;SDS011;57190;47.918;8.112;2022-12-18T04:00:55;11.30;;;9.67;;
69906;SDS011;57190;47.918;8.112;2022-12-18T04:03:24;11.23;;;8.97;;
69906;SDS011;57190;47.918;8.112;2022-12-18T04:05:52;11.00;;;8.43;;
69906;SDS011;57190;47.918;8.112;2022-12-18T04:08:20;9.17;;;7.60;;
69906;SDS011;57190;47.918;8.112;2022-12-18T04:10:46;11.67;;;7.83;;
69906;SDS011;57190;47.918;8.112;2022-12-18T04:13:12;9.53;;;7.77;;
69906;SDS011;57190;47.918;8.112;2022-12-18T04:15:37;10.33;;;8.43;;
69906;SDS011;57190;47.918;8.112;2022-12-18T04:18:04;11.20;;;9.00;;
69906;SDS011;57190;47.918;8.112;2022-12-18T04:20:29;9.27;;;8.33;;
69906;SDS011;57190;47.918;8.112;2022-12-18T04:22:55;10.20;;;8.30;;
69906;SDS011;57190;47.918;8.112;2022-12-18T04:25:20;9.93;;;7.90;;
69906;SDS011;57190;47.918;8.112;2022-12-18T04:27:46;11.27;;;8.37;;
69906;SDS011;57190;47.918;8.112;2022-12-18T04:30:11;11.10;;;8.47;;
69906;SDS011;57190;47.918;8.112;2022-12-18T04:32:37;12.77;;;9.43;;
69906;SDS011;57190;47.918;8.112;2022-12-18T04:35:02;10.27;;;8.67;;
69906;SDS011;57190;47.918;8.112;2022-12-18T04:37:29;10.53;;;8.23;;
69906;SDS011;57190;47.918;8.112;2022-12-18T04:39:55;10.47;;;7.93;;
69906;SDS011;57190;47.918;8.112;2022-12-18T04:42:20;10.67;;;8.57;;
69906;SDS011;57190;47.918;8.112;2022-12-18T04:44:46;11.00;;;8.43;;
69906;SDS011;57190;47.918;8.112;2022-12-18T04:47:11;12.23;;;9.07;;
69906;SDS011;57190;47.918;8.112;2022-12-18T04:49:37;12.13;;;9.17;;
69906;SDS011;57190;47.918;8.112;2022-12-18T04:52:02;9.97;;;8.03;;
69906;SDS011;57190;47.918;8.112;2022-12-18T04:54:28;10.87;;;8.83;;
69906;SDS011;57190;47.918;8.112;2022-12-18T04:56:53;11.33;;;8.93;;
69906;SDS011;57190;47.918;8.112;2022-12-18T04:59:19;10.53;;;8.70;;
69906;SDS011;57190;47.918;8.112;2022-12-18T05:01:44;10.87;;;8.67;;
69906;SDS011;57190;47.918;8.112;2022-12-18T05:04:10;12.53;;;9.33;;
69906;SDS011;57190;47.918;8.112;2022-12-18T05:06:36;12.30;;;10.00;;
69906;SDS011;57190;47.918;8.112;2022-12-18T05:09:01;14.07;;;10.00;;
69906;SDS011;57190;47.918;8.112;2022-12-18T05:11:27;12.10;;;9.10;;
69906;SDS011;57190;47.918;8.112;2022-12-18T05:13:52;13.57;;;9.97;;
69906;SDS011;57190;47.918;8.112;2022-12-18T05:16:18;12.67;;;9.77;;
69906;SDS011;57190;47.918;8.112;2022-12-18T05:18:43;13.67;;;10.00;;
69906;SDS011;57190;47.918;8.112;2022-12-18T05:21:08;14.47;;;10.70;;
69906;SDS011;57190;47.918;8.112;2022-12-18T05:23:34;15.90;;;9.97;;
69906;SDS011;57190;47.918;8.112;2022-12-18T05:26:00;18.10;;;12.13;;
69906;SDS011;57190;47.918;8.112;2022-12-18T05:28:28;17.27;;;11.13;;
69906;SDS011;57190;47.918;8.112;2022-12-18T05:30:56;18.10;;;12.60;;
69906;SDS011;57190;47.918;8.112;2022-12-18T05:33:23;19.27;;;12.37;;
69906;SDS011;57190;47.918;8.112;2022-12-18T05:35:50;16.50;;;11.50;;
69906;SDS011;57190;47.918;8.112;2022-12-18T05:38:17;16.50;;;11.60;;
69906;SDS011;57190;47.918;8.112;2022-12-18T05:40:43;16.50;;;12.23;;
69906;SDS011;57190;47.918;8.112;2022-12-18T05:43:09;16.57;;;13.20;;
69906;SDS011;57190;47.918;8.112;2022-12-18T05:45:38;15.97;;;12.47;;
69906;SDS011;57190;47.918;8.112;2022-12-18T05:48:04;14.60;;;10.83;;
69906;SDS011;57190;47.918;8.112;2022-12-18T05:50:30;17.97;;;11.37;;
69906;SDS011;57190;47.918;8.112;2022-12-18T05:52:58;15.53;;;11.40;;
69906;SDS011;57190;47.918;8.112;2022-12-18T05:55:23;15.23;;;11.07;;
69906;SDS011;57190;47.918;8.112;2022-12-18T05:57:49;14.33;;;11.10;;
69906;SDS011;57190;47.918;8.112;2022-12-18T06:00:14;14.70;;;10.77;;
69906;SDS011;57190;47.918;8.112;2022-12-18T06:02:40;16.33;;;11.43;;
69906;SDS011;57190;47.918;8.112;2022-12-18T06:05:06;14.80;;;11.63;;
69906;SDS011;57190;47.918;8.112;2022-12-18T06:07:31;16.47;;;11.90;;
69906;SDS011;57190;47.918;8.112;2022-12-18T06:09:57;19.63;;;12.27;;
69906;SDS011;57190;47.918;8.112;2022-12-18T06:12:22;16.10;;;11.93;;
69906;SDS011;57190;47.918;8.112;2022-12-18T06:14:48;18.70;;;12.47;;
69906;SDS011;57190;47.918;8.112;2022-12-18T06:17:13;15.67;;;12.80;;
69906;SDS011;57190;47.918;8.112;2022-12-18T06:19:39;18.87;;;13.43;;
69906;SDS011;57190;47.918;8.112;2022-12-18T06:22:04;16.27;;;11.43;;
69906;SDS011;57190;47.918;8.112;2022-12-18T06:24:29;16.83;;;12.13;;
69906;SDS011;57190;47.918;8.112;2022-12-18T06:26:55;13.93;;;10.70;;
69906;SDS011;57190;47.918;8.112;2022-12-18T06:29:20;17.53;;;12.30;;
69906;SDS011;57190;47.918;8.112;2022-12-18T06:31:46;16.47;;;12.30;;
69906;SDS011;57190;47.918;8.112;2022-12-18T06:34:11;18.27;;;11.80;;
69906;SDS011;57190;47.918;8.112;2022-12-18T06:36:37;13.63;;;10.80;;
69906;SDS011;57190;47.918;8.112;2022-12-18T06:39:02;17.60;;;11.43;;
69906;SDS011;57190;47.918;8.112;2022-12-18T06:41:28;16.77;;;11.27;;
69906;SDS011;57190;47.918;8.112;2022-12-18T06:43:53;14.10;;;10.90;;
69906;SDS011;57190;47.918;8.112;2022-12-18T06:46:19;14.67;;;10.57;;
69906;SDS011;57190;47.918;8.112;2022-12-18T06:48:48;14.23;;;10.60;;
69906;SDS011;57190;47.918;8.112;2022-12-18T06:51:18;13.33;;;10.77;;
69906;SDS011;57190;47.918;8.112;2022-12-18T06:53:46;12.10;;;9.47;;
69906;SDS011;57190;47.918;8.112;2022-12-18T06:56:11;13.10;;;10.17;;
69906;SDS011;57190;47.918;8.112;2022-12-18T06:58:37;11.97;;;9.77;;
69906;SDS011;57190;47.918;8.112;2022-12-18T07:01:05;15.07;;;11.30;;
69906;SDS011;57190;47.918;8.112;2022-12-18T07:03:32;14.63;;;11.53;;
69906;SDS011;57190;47.918;8.112;2022-12-18T07:05:58;16.00;;;11.20;;
69906;SDS011;57190;47.918;8.112;2022-12-18T07:08:24;15.67;;;11.80;;
69906;SDS011;57190;47.918;8.112;2022-12-18T07:10:49;16.10;;;11.77;;
69906;SDS011;57190;47.918;8.112;2022-12-18T07:13:15;16.43;;;11.87;;
69906;SDS011;57190;47.918;8.112;2022-12-18T07:15:41;17.63;;;11.40;;
69906;SDS011;57190;47.918;8.112;2022-12-18T07:18:07;15.63;;;11.67;;
69906;SDS011;57190;47.918;8.112;2022-12-18T07:20:32;16.97;;;12.77;;
69906;SDS011;57190;47.918;8.112;2022-12-18T07:22:57;17.80;;;13.27;;
69906;SDS011;57190;47.918;8.112;2022-12-18T07:25:23;16.83;;;11.93;;
69906;SDS011;57190;47.918;8.112;2022-12-18T07:27:48;16.63;;;11.70;;
69906;SDS011;57190;47.918;8.112;2022-12-18T07:30:14;14.37;;;11.27;;
69906;SDS011;57190;47.918;8.112;2022-12-18T07:32:39;18.40;;;12.63;;
69906;SDS011;57190;47.918;8.112;2022-12-18T07:35:05;16.90;;;11.97;;
69906;SDS011;57190;47.918;8.112;2022-12-18T07:37:31;18.20;;;13.10;;
69906;SDS011;57190;47.918;8.112;2022-12-18T07:39:56;17.87;;;13.80;;
69906;SDS011;57190;47.918;8.112;2022-12-18T07:42:22;18.90;;;13.50;;
69906;SDS011;57190;47.918;8.112;2022-12-18T07:44:56;22.53;;;15.03;;
69906;SDS011;57190;47.918;8.112;2022-12-18T07:47:23;19.77;;;14.77;;
69906;SDS011;57190;47.918;8.112;2022-12-18T07:49:48;22.33;;;16.70;;
69906;SDS011;57190;47.918;8.112;2022-12-18T07:52:14;20.80;;;15.80;;
69906;SDS011;57190;47.918;8.112;2022-12-18T07:54:40;17.50;;;15.23;;
69906;SDS011;57190;47.918;8.112;2022-12-18T07:57:05;18.90;;;16.73;;
69906;SDS011;57190;47.918;8.112;2022-12-18T07:59:31;19.90;;;14.90;;
69906;SDS011;57190;47.918;8.112;2022-12-18T08:01:57;18.23;;;15.50;;
69906;SDS011;57190;47.918;8.112;2022-12-18T08:04:23;17.30;;;15.50;;
69906;SDS011;57190;47.918;8.112;2022-12-18T08:06:49;15.97;;;14.47;;
69906;SDS011;57190;47.918;8.112;2022-12-18T08:09:15;16.23;;;14.63;;
69906;SDS011;57190;47.918;8.112;2022-12-18T08:11:41;16.03;;;14.50;;
69906;SDS011;57190;47.918;8.112;2022-12-18T08:14:06;17.30;;;15.67;;
69906;SDS011;57190;47.918;8.112;2022-12-18T08:16:32;16.50;;;15.00;;
69906;SDS011;57190;47.918;8.112;2022-12-18T08:21:26;16.33;;;14.80;;
69906;SDS011;57190;47.918;8.112;2022-12-18T08:23:54;16.33;;;14.83;;
69906;SDS011;57190;47.918;8.112;2022-12-18T08:26:21;16.50;;;15.00;;
69906;SDS011;57190;47.918;8.112;2022-12-18T08:28:47;16.53;;;15.03;;
69906;SDS011;57190;47.918;8.112;2022-12-18T08:31:13;15.93;;;14.43;;
69906;SDS011;57190;47.918;8.112;2022-12-18T08:33:39;17.40;;;15.80;;
69906;SDS011;57190;47.918;8.112;2022-12-18T08:36:06;16.23;;;14.73;;
69906;SDS011;57190;47.918;8.112;2022-12-18T08:38:33;16.77;;;15.17;;
69906;SDS011;57190;47.918;8.112;2022-12-18T08:40:59;18.07;;;16.30;;
69906;SDS011;57190;47.918;8.112;2022-12-18T08:43:26;16.97;;;15.47;;
69906;SDS011;57190;47.918;8.112;2022-12-18T08:46:10;17.85;;;16.10;;
69906;SDS011;57190;47.918;8.112;2022-12-18T08:48:37;18.40;;;16.70;;
69906;SDS011;57190;47.918;8.112;2022-12-18T08:51:02;18.45;;;16.75;;
69906;SDS011;57190;47.918;8.112;2022-12-18T08:53:28;18.27;;;16.58;;
69906;SDS011;57190;47.918;8.112;2022-12-18T08:55:53;20.00;;;18.02;;
69906;SDS011;57190;47.918;8.112;2022-12-18T08:58:21;20.55;;;18.63;;
69906;SDS011;57190;47.918;8.112;2022-12-18T09:00:46;19.27;;;17.65;;
69906;SDS011;57190;47.918;8.112;2022-12-18T09:03:16;19.33;;;17.60;;
69906;SDS011;57190;47.918;8.112;2022-12-18T09:05:43;19.60;;;17.95;;
69906;SDS011;57190;47.918;8.112;2022-12-18T09:08:10;21.88;;;20.08;;
69906;SDS011;57190;47.918;8.112;2022-12-18T09:10:41;20.25;;;18.55;;
69906;SDS011;57190;47.918;8.112;2022-12-18T09:13:09;20.73;;;19.13;;
69906;SDS011;57190;47.918;8.112;2022-12-18T09:15:39;20.80;;;19.10;;
69906;SDS011;57190;47.918;8.112;2022-12-18T09:18:06;18.08;;;16.58;;
69906;SDS011;57190;47.918;8.112;2022-12-18T09:20:32;20.27;;;18.58;;
69906;SDS011;57190;47.918;8.112;2022-12-18T09:22:57;19.55;;;17.92;;
69906;SDS011;57190;47.918;8.112;2022-12-18T09:25:23;21.08;;;19.27;;
69906;SDS011;57190;47.918;8.112;2022-12-18T09:27:48;20.50;;;18.65;;
69906;SDS011;57190;47.918;8.112;2022-12-18T09:30:14;21.17;;;19.27;;
69906;SDS011;57190;47.918;8.112;2022-12-18T09:32:40;19.52;;;17.80;;
69906;SDS011;57190;47.918;8.112;2022-12-18T09:35:05;19.80;;;17.85;;
69906;SDS011;57190;47.918;8.112;2022-12-18T09:37:31;19.63;;;17.77;;
69906;SDS011;57190;47.918;8.112;2022-12-18T09:39:56;20.27;;;18.27;;
69906;SDS011;57190;47.918;8.112;2022-12-18T09:42:22;19.73;;;17.73;;
69906;SDS011;57190;47.918;8.112;2022-12-18T09:44:52;19.23;;;17.38;;
69906;SDS011;57190;47.918;8.112;2022-12-18T09:47:20;20.33;;;18.23;;
69906;SDS011;57190;47.918;8.112;2022-12-18T09:49:51;20.10;;;18.00;;
69906;SDS011;57190;47.918;8.112;2022-12-18T09:52:25;19.50;;;17.50;;
69906;SDS011;57190;47.918;8.112;2022-12-18T09:55:45;20.03;;;17.97;;
69906;SDS011;57190;47.918;8.112;2022-12-18T10:00:35;19.30;;;17.33;;
69906;SDS011;57190;47.918;8.112;2022-12-18T10:03:02;18.83;;;16.93;;
69906;SDS011;57190;47.918;8.112;2022-12-18T10:08:58;18.53;;;16.63;;
69906;SDS011;57190;47.918;8.112;2022-12-18T10:27:41;18.90;;;16.97;;
69906;SDS011;57190;47.918;8.112;2022-12-18T10:30:16;20.70;;;18.20;;
69906;SDS011;57190;47.918;8.112;2022-12-18T10:32:44;18.33;;;16.47;;
69906;SDS011;57190;47.918;8.112;2022-12-18T10:35:27;18.90;;;16.70;;
69906;SDS011;57190;47.918;8.112;2022-12-18T10:40:55;16.93;;;15.13;;
69906;SDS011;57190;47.918;8.112;2022-12-18T10:43:33;19.00;;;17.10;;
69906;SDS011;57190;47.918;8.112;2022-12-18T10:51:31;18.77;;;16.43;;
69906;SDS011;57190;47.918;8.112;2022-12-18T10:54:03;20.37;;;18.23;;
69906;SDS011;57190;47.918;8.112;2022-12-18T10:56:32;18.70;;;16.70;;
69906;SDS011;57190;47.918;8.112;2022-12-18T10:59:03;19.13;;;17.13;;
69906;SDS011;57190;47.918;8.112;2022-12-18T11:02:23;20.23;;;18.03;;
69906;SDS011;57190;47.918;8.112;2022-12-18T11:04:25;18.33;;;16.40;;
69906;SDS011;57190;47.918;8.112;2022-12-18T11:06:57;18.73;;;16.77;;
69906;SDS011;57190;47.918;8.112;2022-12-18T11:09:31;20.53;;;17.77;;
69906;SDS011;57190;47.918;8.112;2022-12-18T11:11:59;19.83;;;17.80;;
69906;SDS011;57190;47.918;8.112;2022-12-18T11:14:28;19.47;;;16.40;;
69906;SDS011;57190;47.918;8.112;2022-12-18T11:16:56;20.13;;;16.83;;
69906;SDS011;57190;47.918;8.112;2022-12-18T11:21:58;19.20;;;17.20;;
69906;SDS011;57190;47.918;8.112;2022-12-18T11:24:29;19.67;;;16.93;;
69906;SDS011;57190;47.918;8.112;2022-12-18T11:27:00;18.27;;;16.13;;
69906;SDS011;57190;47.918;8.112;2022-12-18T11:32:12;19.53;;;17.20;;
69906;SDS011;57190;47.918;8.112;2022-12-18T11:34:57;18.60;;;16.60;;
69906;SDS011;57190;47.918;8.112;2022-12-18T11:37:27;20.43;;;17.70;;
69906;SDS011;57190;47.918;8.112;2022-12-18T11:40:02;19.30;;;16.67;;
69906;SDS011;57190;47.918;8.112;2022-12-18T11:43:04;19.37;;;16.87;;
69906;SDS011;57190;47.918;8.112;2022-12-18T11:45:38;18.57;;;16.57;;
69906;SDS011;57190;47.918;8.112;2022-12-18T11:50:46;19.43;;;17.33;;
69906;SDS011;57190;47.918;8.112;2022-12-18T11:53:16;19.13;;;16.63;;
69906;SDS011;57190;47.918;8.112;2022-12-18T12:03:47;20.37;;;18.07;;
69906;SDS011;57190;47.918;8.112;2022-12-18T12:12:00;19.83;;;17.33;;
69906;SDS011;57190;47.918;8.112;2022-12-18T12:22:56;19.27;;;17.07;;
69906;SDS011;57190;47.918;8.112;2022-12-18T12:25:44;19.60;;;16.93;;
69906;SDS011;57190;47.918;8.112;2022-12-18T12:34:01;18.40;;;16.40;;
69906;SDS011;57190;47.918;8.112;2022-12-18T12:36:41;18.77;;;15.80;;
69906;SDS011;57190;47.918;8.112;2022-12-18T12:39:21;19.73;;;16.30;;
69906;SDS011;57190;47.918;8.112;2022-12-18T12:41:51;20.77;;;17.80;;
69906;SDS011;57190;47.918;8.112;2022-12-18T12:44:42;19.23;;;17.10;;
69906;SDS011;57190;47.918;8.112;2022-12-18T12:47:31;18.90;;;17.00;;
69906;SDS011;57190;47.918;8.112;2022-12-18T12:50:03;19.03;;;16.40;;
69906;SDS011;57190;47.918;8.112;2022-12-18T12:52:40;19.07;;;16.77;;
69906;SDS011;57190;47.918;8.112;2022-12-18T12:55:15;19.43;;;17.13;;
69906;SDS011;57190;47.918;8.112;2022-12-18T12:57:48;18.53;;;15.87;;
69906;SDS011;57190;47.918;8.112;2022-12-18T13:00:37;18.83;;;16.67;;
69906;SDS011;57190;47.918;8.112;2022-12-18T13:06:16;19.10;;;16.27;;
69906;SDS011;57190;47.918;8.112;2022-12-18T13:08:57;19.17;;;16.30;;
69906;SDS011;57190;47.918;8.112;2022-12-18T13:11:28;18.67;;;16.67;;
69906;SDS011;57190;47.918;8.112;2022-12-18T13:14:23;17.00;;;15.00;;
69906;SDS011;57190;47.918;8.112;2022-12-18T13:20:28;18.17;;;16.03;;
69906;SDS011;57190;47.918;8.112;2022-12-18T13:22:48;18.57;;;16.07;;
69906;SDS011;57190;47.918;8.112;2022-12-18T13:25:28;20.17;;;16.83;;
69906;SDS011;57190;47.918;8.112;2022-12-18T13:38:24;17.67;;;15.80;;
69906;SDS011;57190;47.918;8.112;2022-12-18T13:40:58;19.00;;;16.87;;
69906;SDS011;57190;47.918;8.112;2022-12-18T13:43:52;16.33;;;14.53;;
69906;SDS011;57190;47.918;8.112;2022-12-18T13:46:47;18.80;;;16.60;;
69906;SDS011;57190;47.918;8.112;2022-12-18T13:52:01;18.73;;;16.23;;
69906;SDS011;57190;47.918;8.112;2022-12-18T13:54:37;19.13;;;16.83;;
69906;SDS011;57190;47.918;8.112;2022-12-18T13:57:14;19.70;;;16.73;;
69906;SDS011;57190;47.918;8.112;2022-12-18T13:59:50;15.43;;;13.80;;
69906;SDS011;57190;47.918;8.112;2022-12-18T14:02:17;18.33;;;16.23;;
69906;SDS011;57190;47.918;8.112;2022-12-18T14:04:46;17.27;;;15.20;;
69906;SDS011;57190;47.918;8.112;2022-12-18T14:07:13;16.90;;;14.97;;
69906;SDS011;57190;47.918;8.112;2022-12-18T14:09:41;18.63;;;15.07;;
69906;SDS011;57190;47.918;8.112;2022-12-18T14:12:44;19.63;;;16.87;;
69906;SDS011;57190;47.918;8.112;2022-12-18T14:17:44;18.23;;;16.17;;
69906;SDS011;57190;47.918;8.112;2022-12-18T14:20:14;18.57;;;16.00;;
69906;SDS011;57190;47.918;8.112;2022-12-18T14:22:42;17.93;;;15.73;;
69906;SDS011;57190;47.918;8.112;2022-12-18T14:25:14;17.87;;;15.20;;
69906;SDS011;57190;47.918;8.112;2022-12-18T14:27:43;17.40;;;15.50;;
69906;SDS011;57190;47.918;8.112;2022-12-18T14:30:35;18.93;;;14.90;;
69906;SDS011;57190;47.918;8.112;2022-12-18T14:33:08;16.97;;;14.43;;
69906;SDS011;57190;47.918;8.112;2022-12-18T14:35:36;18.37;;;16.33;;
69906;SDS011;57190;47.918;8.112;2022-12-18T14:38:11;19.03;;;16.27;;
69906;SDS011;57190;47.918;8.112;2022-12-18T14:40:52;18.10;;;16.13;;
69906;SDS011;57190;47.918;8.112;2022-12-18T14:43:29;18.10;;;15.23;;
69906;SDS011;57190;47.918;8.112;2022-12-18T14:45:57;18.40;;;14.93;;
69906;SDS011;57190;47.918;8.112;2022-12-18T14:51:13;19.40;;;17.33;;
69906;SDS011;57190;47.918;8.112;2022-12-18T14:53:43;18.90;;;16.27;;
69906;SDS011;57190;47.918;8.112;2022-12-18T14:56:31;19.53;;;15.90;;
69906;SDS011;57190;47.918;8.112;2022-12-18T14:59:01;20.33;;;16.23;;
69906;SDS011;57190;47.918;8.112;2022-12-18T15:01:35;19.57;;;16.73;;
69906;SDS011;57190;47.918;8.112;2022-12-18T15:04:03;20.83;;;17.20;;
69906;SDS011;57190;47.918;8.112;2022-12-18T15:06:34;18.70;;;16.50;;
69906;SDS011;57190;47.918;8.112;2022-12-18T15:09:06;19.33;;;16.57;;
69906;SDS011;57190;47.918;8.112;2022-12-18T15:11:47;20.03;;;17.87;;
69906;SDS011;57190;47.918;8.112;2022-12-18T15:14:23;20.60;;;17.00;;
69906;SDS011;57190;47.918;8.112;2022-12-18T15:16:57;20.10;;;17.10;;
69906;SDS011;57190;47.918;8.112;2022-12-18T15:19:58;18.50;;;15.77;;
69906;SDS011;57190;47.918;8.112;2022-12-18T15:24:58;20.80;;;16.73;;
69906;SDS011;57190;47.918;8.112;2022-12-18T15:32:27;22.90;;;19.30;;
69906;SDS011;57190;47.918;8.112;2022-12-18T15:37:39;22.40;;;18.40;;
69906;SDS011;57190;47.918;8.112;2022-12-18T15:40:06;22.10;;;18.50;;
69906;SDS011;57190;47.918;8.112;2022-12-18T15:42:33;22.33;;;17.40;;
69906;SDS011;57190;47.918;8.112;2022-12-18T15:45:17;20.63;;;16.93;;
69906;SDS011;57190;47.918;8.112;2022-12-18T15:47:43;21.10;;;17.33;;
69906;SDS011;57190;47.918;8.112;2022-12-18T15:50:08;19.67;;;16.03;;
69906;SDS011;57190;47.918;8.112;2022-12-18T15:52:41;21.03;;;16.83;;
69906;SDS011;57190;47.918;8.112;2022-12-18T15:55:22;20.73;;;16.33;;
69906;SDS011;57190;47.918;8.112;2022-12-18T15:58:08;22.13;;;17.33;;
69906;SDS011;57190;47.918;8.112;2022-12-18T16:00:35;22.90;;;17.30;;
69906;SDS011;57190;47.918;8.112;2022-12-18T16:03:03;19.83;;;16.27;;
69906;SDS011;57190;47.918;8.112;2022-12-18T16:05:30;18.80;;;14.80;;
69906;SDS011;57190;47.918;8.112;2022-12-18T16:07:56;19.83;;;15.57;;
69906;SDS011;57190;47.918;8.112;2022-12-18T16:10:22;17.97;;;15.07;;
69906;SDS011;57190;47.918;8.112;2022-12-18T16:12:49;20.63;;;16.20;;
69906;SDS011;57190;47.918;8.112;2022-12-18T16:15:15;20.43;;;16.60;;
69906;SDS011;57190;47.918;8.112;2022-12-18T16:17:41;17.10;;;13.87;;
69906;SDS011;57190;47.918;8.112;2022-12-18T16:20:19;15.60;;;12.97;;
69906;SDS011;57190;47.918;8.112;2022-12-18T16:22:46;15.10;;;13.30;;
69906;SDS011;57190;47.918;8.112;2022-12-18T16:25:19;15.30;;;13.00;;
69906;SDS011;57190;47.918;8.112;2022-12-18T16:27:47;14.30;;;11.77;;
69906;SDS011;57190;47.918;8.112;2022-12-18T16:30:17;16.90;;;12.47;;
69906;SDS011;57190;47.918;8.112;2022-12-18T16:32:44;19.53;;;14.20;;
69906;SDS011;57190;47.918;8.112;2022-12-18T16:35:11;18.47;;;14.23;;
69906;SDS011;57190;47.918;8.112;2022-12-18T16:37:38;15.47;;;12.80;;
69906;SDS011;57190;47.918;8.112;2022-12-18T16:40:04;14.03;;;11.40;;
69906;SDS011;57190;47.918;8.112;2022-12-18T16:42:33;14.40;;;12.40;;
69906;SDS011;57190;47.918;8.112;2022-12-18T16:45:00;15.00;;;12.27;;
69906;SDS011;57190;47.918;8.112;2022-12-18T16:47:25;14.33;;;12.10;;
69906;SDS011;57190;47.918;8.112;2022-12-18T16:49:51;14.90;;;12.53;;
69906;SDS011;57190;47.918;8.112;2022-12-18T16:52:17;13.57;;;11.53;;
69906;SDS011;57190;47.918;8.112;2022-12-18T16:54:43;13.53;;;11.10;;
69906;SDS011;57190;47.918;8.112;2022-12-18T16:57:10;15.27;;;12.23;;
69906;SDS011;57190;47.918;8.112;2022-12-18T16:59:38;15.33;;;11.37;;
69906;SDS011;57190;47.918;8.112;2022-12-18T17:02:04;11.67;;;9.90;;